首页
METAR-TAF:

METAR-TAF

机场 :

吉布提-安布利国际机场

吉布地, 吉布提

纬度: 11-33N, 经度: 043-10E, 海拔: 49米

当前天气观测

该预报发布于10小时和2分钟前的17:00 UTC
风速5节,风向多变
温度
气压
能见度10公里或以上
少量云层高于2000英尺

METAR: HDAM 161700Z 1618/1718 VRB05KT 9999 FEW020 BECMG 1700/1706 10010KT SHRA SCT020 FEW030CB BECMG 1706/1712 08010KT SCT020 SCT030

时间: 06:02 (03:02 UTC)

预报

预报有效从17日的 00点(UTC)到 17日的 24点(UTC)
风速10节,风向
能见度10公里或以上
散云层高于2000英尺
少量云层高于3000英尺, 积雨云.
阵雨
成为
从 17日的 06点(UTC)到 17日的 12点(UTC)
风速10节,风向
散云层高于2300英尺
散云层高于3000英尺
成为
从 17日的 15点(UTC)到 17日的 18点(UTC)
风速5节,风向多变
少量云层高于2000英尺

TAF: HDAM 1700/1724 10010KT 9999 SHRA SCT020 FEW030CB BECMG 1706/1712 08010KT SCT023 SCT030 BECMG 1715/1718 VRB05KT FEW020

超过4000个机场的气象观测和天气预报(METAR&TAF报告)。

可查询的气象台以黄色和红色小点在地图上表示。

将鼠标移到小点上方,可查看气象台名称。

然后点击查看天气观测和预报。

如需切换地图:点击带黑十字的绿色按钮放大地图;点击带横线的绿色按钮缩小地图;或者点击绿色箭头查看邻近地区的地图。


METAR-TAF: